Altona, New York
Current Conditions -  °F | °C
As of 12:08 PM on Friday 24 Oct 2014 (Local Time) from KPBG Reporting Station
Overcast Overcast  
Wind Chill: 42°   Ceiling: 2900
Heat Index: 49°   Visibility: 10mi
Dew Point: 40°   Wind: 18mph
Humidity: 71%   Direction: 350°N
Pressure: 29.86"   Gusts: 24mph
Location:  44.89°N, 73.66°W
Report Text: KPBG 241608Z AUTO 35016G21KT 10SM OVC029 09/04 A2986 RMK AO2 T00940044
Loading
Personal Weather Stations






























Interactive Weather Map
Tropical Storm Tracking
New forecast layout! Learn more

10-Day Weather Forecast

Advertisements
Track Severe Weather on mobile